sensor_id;sensor_type;location;lat;lon;timestamp;temperature;humidity
57660;DHT22;43485;45.680;15.702;2023-08-20T00:02:19;23.40;65.90
57660;DHT22;43485;45.680;15.702;2023-08-20T00:04:48;23.40;66.60
57660;DHT22;43485;45.680;15.702;2023-08-20T00:07:15;23.30;67.20
57660;DHT22;43485;45.680;15.702;2023-08-20T00:09:44;23.30;67.00
57660;DHT22;43485;45.680;15.702;2023-08-20T00:12:10;23.30;67.60
57660;DHT22;43485;45.680;15.702;2023-08-20T00:14:55;23.30;67.50
57660;DHT22;43485;45.680;15.702;2023-08-20T00:17:24;23.30;67.10
57660;DHT22;43485;45.680;15.702;2023-08-20T00:20:13;23.30;67.10
57660;DHT22;43485;45.680;15.702;2023-08-20T00:22:40;23.30;66.90
57660;DHT22;43485;45.680;15.702;2023-08-20T00:25:08;23.30;66.80
57660;DHT22;43485;45.680;15.702;2023-08-20T00:27:35;23.20;66.70
57660;DHT22;43485;45.680;15.702;2023-08-20T00:30:00;23.20;66.70
57660;DHT22;43485;45.680;15.702;2023-08-20T00:32:26;23.10;66.60
57660;DHT22;43485;45.680;15.702;2023-08-20T00:34:52;23.10;66.50
57660;DHT22;43485;45.680;15.702;2023-08-20T00:37:18;23.00;66.60
57660;DHT22;43485;45.680;15.702;2023-08-20T00:39:45;23.00;67.00
57660;DHT22;43485;45.680;15.702;2023-08-20T00:42:11;22.90;67.30
57660;DHT22;43485;45.680;15.702;2023-08-20T00:44:40;22.80;67.40
57660;DHT22;43485;45.680;15.702;2023-08-20T00:47:13;22.80;67.20
57660;DHT22;43485;45.680;15.702;2023-08-20T00:49:39;22.80;67.40
57660;DHT22;43485;45.680;15.702;2023-08-20T00:52:08;22.80;67.60
57660;DHT22;43485;45.680;15.702;2023-08-20T00:54:35;22.70;67.70
57660;DHT22;43485;45.680;15.702;2023-08-20T00:57:02;22.70;67.10
57660;DHT22;43485;45.680;15.702;2023-08-20T00:59:47;22.60;67.50
57660;DHT22;43485;45.680;15.702;2023-08-20T01:02:33;22.60;67.60
57660;DHT22;43485;45.680;15.702;2023-08-20T01:05:00;22.60;67.80
57660;DHT22;43485;45.680;15.702;2023-08-20T01:10:44;22.60;67.30
57660;DHT22;43485;45.680;15.702;2023-08-20T01:13:21;22.60;67.10
57660;DHT22;43485;45.680;15.702;2023-08-20T01:15:47;22.60;67.20
57660;DHT22;43485;45.680;15.702;2023-08-20T01:18:13;22.50;67.30
57660;DHT22;43485;45.680;15.702;2023-08-20T01:20:45;22.60;67.10
57660;DHT22;43485;45.680;15.702;2023-08-20T01:29:29;22.50;67.00
57660;DHT22;43485;45.680;15.702;2023-08-20T01:31:55;22.50;67.20
57660;DHT22;43485;45.680;15.702;2023-08-20T01:34:21;22.40;67.20
57660;DHT22;43485;45.680;15.702;2023-08-20T01:36:48;22.30;67.80
57660;DHT22;43485;45.680;15.702;2023-08-20T01:39:14;22.30;68.30
57660;DHT22;43485;45.680;15.702;2023-08-20T01:41:40;22.20;68.30
57660;DHT22;43485;45.680;15.702;2023-08-20T01:44:06;22.20;68.00
57660;DHT22;43485;45.680;15.702;2023-08-20T01:46:33;22.20;68.10
57660;DHT22;43485;45.680;15.702;2023-08-20T01:48:58;22.20;68.30
57660;DHT22;43485;45.680;15.702;2023-08-20T01:51:24;22.30;67.90
57660;DHT22;43485;45.680;15.702;2023-08-20T01:53:51;22.20;68.20
57660;DHT22;43485;45.680;15.702;2023-08-20T01:56:16;22.20;68.30
57660;DHT22;43485;45.680;15.702;2023-08-20T01:58:42;22.20;68.20
57660;DHT22;43485;45.680;15.702;2023-08-20T02:01:08;22.20;68.30
57660;DHT22;43485;45.680;15.702;2023-08-20T02:03:36;22.20;68.10
57660;DHT22;43485;45.680;15.702;2023-08-20T02:06:05;22.20;67.70
57660;DHT22;43485;45.680;15.702;2023-08-20T02:08:31;22.20;68.30
57660;DHT22;43485;45.680;15.702;2023-08-20T02:11:16;22.20;68.20
57660;DHT22;43485;45.680;15.702;2023-08-20T02:13:42;22.10;68.20
57660;DHT22;43485;45.680;15.702;2023-08-20T02:16:08;22.00;68.40
57660;DHT22;43485;45.680;15.702;2023-08-20T02:18:34;21.90;69.30
57660;DHT22;43485;45.680;15.702;2023-08-20T02:21:00;21.90;68.40
57660;DHT22;43485;45.680;15.702;2023-08-20T02:23:26;21.80;68.40
57660;DHT22;43485;45.680;15.702;2023-08-20T02:25:51;21.80;68.30
57660;DHT22;43485;45.680;15.702;2023-08-20T02:28:18;21.80;68.30
57660;DHT22;43485;45.680;15.702;2023-08-20T02:30:44;21.80;68.20
57660;DHT22;43485;45.680;15.702;2023-08-20T02:33:11;21.80;67.90
57660;DHT22;43485;45.680;15.702;2023-08-20T02:38:26;21.70;68.50
57660;DHT22;43485;45.680;15.702;2023-08-20T02:40:52;21.80;68.70
57660;DHT22;43485;45.680;15.702;2023-08-20T02:43:18;21.80;68.70
57660;DHT22;43485;45.680;15.702;2023-08-20T02:45:44;21.70;68.70
57660;DHT22;43485;45.680;15.702;2023-08-20T02:48:10;21.80;68.70
57660;DHT22;43485;45.680;15.702;2023-08-20T02:50:36;21.80;68.80
57660;DHT22;43485;45.680;15.702;2023-08-20T02:53:02;21.70;69.00
57660;DHT22;43485;45.680;15.702;2023-08-20T02:55:29;21.70;68.80
57660;DHT22;43485;45.680;15.702;2023-08-20T02:57:57;21.70;68.80
57660;DHT22;43485;45.680;15.702;2023-08-20T03:00:23;21.70;68.90
57660;DHT22;43485;45.680;15.702;2023-08-20T03:02:49;21.70;69.20
57660;DHT22;43485;45.680;15.702;2023-08-20T03:05:15;21.70;69.00
57660;DHT22;43485;45.680;15.702;2023-08-20T03:07:41;21.70;69.00
57660;DHT22;43485;45.680;15.702;2023-08-20T03:10:07;21.70;69.00
57660;DHT22;43485;45.680;15.702;2023-08-20T03:12:33;21.70;68.20
57660;DHT22;43485;45.680;15.702;2023-08-20T03:14:59;21.70;68.80
57660;DHT22;43485;45.680;15.702;2023-08-20T03:17:25;21.70;68.70
57660;DHT22;43485;45.680;15.702;2023-08-20T03:20:10;21.60;68.00
57660;DHT22;43485;45.680;15.702;2023-08-20T03:22:37;21.60;69.10
57660;DHT22;43485;45.680;15.702;2023-08-20T03:25:04;21.50;69.20
57660;DHT22;43485;45.680;15.702;2023-08-20T03:27:31;21.50;69.20
57660;DHT22;43485;45.680;15.702;2023-08-20T03:29:58;21.50;69.00
57660;DHT22;43485;45.680;15.702;2023-08-20T03:32:24;21.50;69.00
57660;DHT22;43485;45.680;15.702;2023-08-20T03:34:50;21.40;68.50
57660;DHT22;43485;45.680;15.702;2023-08-20T03:37:16;21.40;68.70
57660;DHT22;43485;45.680;15.702;2023-08-20T03:39:42;21.30;68.80
57660;DHT22;43485;45.680;15.702;2023-08-20T03:42:08;21.30;68.80
57660;DHT22;43485;45.680;15.702;2023-08-20T03:44:34;21.20;68.70
57660;DHT22;43485;45.680;15.702;2023-08-20T03:47:00;21.20;68.60
57660;DHT22;43485;45.680;15.702;2023-08-20T03:49:26;21.20;68.60
57660;DHT22;43485;45.680;15.702;2023-08-20T03:51:52;21.20;68.70
57660;DHT22;43485;45.680;15.702;2023-08-20T03:54:18;21.10;68.70
57660;DHT22;43485;45.680;15.702;2023-08-20T03:56:44;21.10;68.80
57660;DHT22;43485;45.680;15.702;2023-08-20T03:59:10;21.10;69.00
57660;DHT22;43485;45.680;15.702;2023-08-20T04:01:37;21.20;69.00
57660;DHT22;43485;45.680;15.702;2023-08-20T04:04:23;21.20;68.90
57660;DHT22;43485;45.680;15.702;2023-08-20T04:06:49;21.20;69.20
57660;DHT22;43485;45.680;15.702;2023-08-20T04:09:15;21.10;68.90
57660;DHT22;43485;45.680;15.702;2023-08-20T04:11:42;21.00;69.00
57660;DHT22;43485;45.680;15.702;2023-08-20T04:14:08;21.00;68.80
57660;DHT22;43485;45.680;15.702;2023-08-20T04:16:34;21.10;68.90
57660;DHT22;43485;45.680;15.702;2023-08-20T04:19:00;21.00;68.60
57660;DHT22;43485;45.680;15.702;2023-08-20T04:21:26;21.10;68.70
57660;DHT22;43485;45.680;15.702;2023-08-20T04:23:52;21.10;68.50
57660;DHT22;43485;45.680;15.702;2023-08-20T04:26:18;21.20;68.50
57660;DHT22;43485;45.680;15.702;2023-08-20T04:28:44;21.30;68.60
57660;DHT22;43485;45.680;15.702;2023-08-20T04:31:10;21.30;68.70
57660;DHT22;43485;45.680;15.702;2023-08-20T04:33:36;21.30;68.60
57660;DHT22;43485;45.680;15.702;2023-08-20T04:36:02;21.30;68.90
57660;DHT22;43485;45.680;15.702;2023-08-20T04:38:28;21.40;68.80
57660;DHT22;43485;45.680;15.702;2023-08-20T04:40:54;21.30;69.30
57660;DHT22;43485;45.680;15.702;2023-08-20T04:43:20;21.30;69.40
57660;DHT22;43485;45.680;15.702;2023-08-20T04:45:46;21.20;69.40
57660;DHT22;43485;45.680;15.702;2023-08-20T04:48:12;21.30;69.40
57660;DHT22;43485;45.680;15.702;2023-08-20T04:50:38;21.30;69.70
57660;DHT22;43485;45.680;15.702;2023-08-20T04:53:04;21.30;70.10
57660;DHT22;43485;45.680;15.702;2023-08-20T04:55:29;21.40;70.10
57660;DHT22;43485;45.680;15.702;2023-08-20T04:57:55;21.50;69.80
57660;DHT22;43485;45.680;15.702;2023-08-20T05:00:21;21.50;70.30
57660;DHT22;43485;45.680;15.702;2023-08-20T05:02:48;21.60;69.80
57660;DHT22;43485;45.680;15.702;2023-08-20T05:05:14;21.60;69.40
57660;DHT22;43485;45.680;15.702;2023-08-20T05:07:40;21.70;70.70
57660;DHT22;43485;45.680;15.702;2023-08-20T05:10:06;21.70;71.10
57660;DHT22;43485;45.680;15.702;2023-08-20T05:12:34;21.60;70.90
57660;DHT22;43485;45.680;15.702;2023-08-20T05:15:00;21.60;70.50
57660;DHT22;43485;45.680;15.702;2023-08-20T05:17:26;21.60;71.20
57660;DHT22;43485;45.680;15.702;2023-08-20T05:19:52;21.70;71.40
57660;DHT22;43485;45.680;15.702;2023-08-20T05:22:18;21.70;71.20
57660;DHT22;43485;45.680;15.702;2023-08-20T05:24:45;21.70;71.00
57660;DHT22;43485;45.680;15.702;2023-08-20T05:29:57;21.80;71.00
57660;DHT22;43485;45.680;15.702;2023-08-20T05:32:22;21.80;71.10
57660;DHT22;43485;45.680;15.702;2023-08-20T05:34:48;21.90;70.90
57660;DHT22;43485;45.680;15.702;2023-08-20T05:37:14;21.90;71.10
57660;DHT22;43485;45.680;15.702;2023-08-20T05:39:42;22.00;70.90
57660;DHT22;43485;45.680;15.702;2023-08-20T05:42:09;22.00;70.70
57660;DHT22;43485;45.680;15.702;2023-08-20T05:44:35;22.10;70.80
57660;DHT22;43485;45.680;15.702;2023-08-20T05:47:01;22.10;70.40
57660;DHT22;43485;45.680;15.702;2023-08-20T05:49:27;22.20;70.90
57660;DHT22;43485;45.680;15.702;2023-08-20T05:51:53;22.30;71.40
57660;DHT22;43485;45.680;15.702;2023-08-20T05:54:19;22.30;71.10
57660;DHT22;43485;45.680;15.702;2023-08-20T05:56:46;22.40;71.10
57660;DHT22;43485;45.680;15.702;2023-08-20T05:59:12;22.40;71.10
57660;DHT22;43485;45.680;15.702;2023-08-20T06:01:38;22.50;71.10
57660;DHT22;43485;45.680;15.702;2023-08-20T06:04:04;22.60;71.00
57660;DHT22;43485;45.680;15.702;2023-08-20T06:06:30;22.60;71.10
57660;DHT22;43485;45.680;15.702;2023-08-20T06:08:56;22.70;70.90
57660;DHT22;43485;45.680;15.702;2023-08-20T06:11:22;22.80;70.80
57660;DHT22;43485;45.680;15.702;2023-08-20T06:13:48;22.80;70.70
57660;DHT22;43485;45.680;15.702;2023-08-20T06:16:13;23.00;70.80
57660;DHT22;43485;45.680;15.702;2023-08-20T06:18:39;23.00;70.60
57660;DHT22;43485;45.680;15.702;2023-08-20T06:21:05;23.10;71.50
57660;DHT22;43485;45.680;15.702;2023-08-20T06:23:31;23.20;70.90
57660;DHT22;43485;45.680;15.702;2023-08-20T06:25:57;23.30;71.60
57660;DHT22;43485;45.680;15.702;2023-08-20T06:28:23;23.30;71.70
57660;DHT22;43485;45.680;15.702;2023-08-20T06:30:49;23.40;71.80
57660;DHT22;43485;45.680;15.702;2023-08-20T06:33:15;23.60;71.40
57660;DHT22;43485;45.680;15.702;2023-08-20T06:35:41;23.60;70.90
57660;DHT22;43485;45.680;15.702;2023-08-20T06:38:07;23.80;71.00
57660;DHT22;43485;45.680;15.702;2023-08-20T06:40:33;23.80;70.60
57660;DHT22;43485;45.680;15.702;2023-08-20T06:43:00;24.00;70.60
57660;DHT22;43485;45.680;15.702;2023-08-20T06:45:25;24.10;70.30
57660;DHT22;43485;45.680;15.702;2023-08-20T06:47:51;24.20;70.40
57660;DHT22;43485;45.680;15.702;2023-08-20T06:50:17;24.40;69.60
57660;DHT22;43485;45.680;15.702;2023-08-20T06:52:43;24.50;69.60
57660;DHT22;43485;45.680;15.702;2023-08-20T06:55:09;24.60;68.90
57660;DHT22;43485;45.680;15.702;2023-08-20T06:57:35;24.80;69.00
57660;DHT22;43485;45.680;15.702;2023-08-20T07:00:01;24.90;68.20
57660;DHT22;43485;45.680;15.702;2023-08-20T07:02:30;25.10;68.40
57660;DHT22;43485;45.680;15.702;2023-08-20T07:04:56;25.20;67.10
57660;DHT22;43485;45.680;15.702;2023-08-20T07:07:22;25.50;67.00
57660;DHT22;43485;45.680;15.702;2023-08-20T07:09:48;25.80;66.70
57660;DHT22;43485;45.680;15.702;2023-08-20T07:12:14;26.10;67.00
57660;DHT22;43485;45.680;15.702;2023-08-20T07:14:40;26.40;66.20
57660;DHT22;43485;45.680;15.702;2023-08-20T07:17:06;26.70;65.50
57660;DHT22;43485;45.680;15.702;2023-08-20T07:19:32;27.00;65.70
57660;DHT22;43485;45.680;15.702;2023-08-20T07:21:58;27.30;64.20
57660;DHT22;43485;45.680;15.702;2023-08-20T07:24:24;27.60;63.30
57660;DHT22;43485;45.680;15.702;2023-08-20T07:26:55;27.80;62.10
57660;DHT22;43485;45.680;15.702;2023-08-20T07:29:26;28.10;62.50
57660;DHT22;43485;45.680;15.702;2023-08-20T07:31:56;28.50;61.40
57660;DHT22;43485;45.680;15.702;2023-08-20T07:34:22;28.80;60.40
57660;DHT22;43485;45.680;15.702;2023-08-20T07:36:48;29.10;60.00
57660;DHT22;43485;45.680;15.702;2023-08-20T07:39:14;29.30;59.30
57660;DHT22;43485;45.680;15.702;2023-08-20T07:41:41;29.60;58.20
57660;DHT22;43485;45.680;15.702;2023-08-20T07:44:07;29.90;57.00
57660;DHT22;43485;45.680;15.702;2023-08-20T07:46:33;30.20;56.80
57660;DHT22;43485;45.680;15.702;2023-08-20T07:48:59;30.60;55.50
57660;DHT22;43485;45.680;15.702;2023-08-20T07:51:25;31.00;55.40
57660;DHT22;43485;45.680;15.702;2023-08-20T07:53:51;31.50;54.20
57660;DHT22;43485;45.680;15.702;2023-08-20T07:56:17;31.90;52.50
57660;DHT22;43485;45.680;15.702;2023-08-20T07:58:43;32.20;51.20
57660;DHT22;43485;45.680;15.702;2023-08-20T08:01:09;32.60;50.00
57660;DHT22;43485;45.680;15.702;2023-08-20T08:03:35;32.90;48.90
57660;DHT22;43485;45.680;15.702;2023-08-20T08:06:01;32.90;47.20
57660;DHT22;43485;45.680;15.702;2023-08-20T08:08:28;33.20;46.90
57660;DHT22;43485;45.680;15.702;2023-08-20T08:10:54;33.40;46.30
57660;DHT22;43485;45.680;15.702;2023-08-20T08:13:22;33.30;45.70
57660;DHT22;43485;45.680;15.702;2023-08-20T08:15:49;33.20;45.70
57660;DHT22;43485;45.680;15.702;2023-08-20T08:18:16;33.00;45.60
57660;DHT22;43485;45.680;15.702;2023-08-20T08:20:42;33.10;45.10
57660;DHT22;43485;45.680;15.702;2023-08-20T08:23:08;33.20;45.10
57660;DHT22;43485;45.680;15.702;2023-08-20T08:25:34;33.50;44.60
57660;DHT22;43485;45.680;15.702;2023-08-20T08:28:00;33.80;43.70
57660;DHT22;43485;45.680;15.702;2023-08-20T08:30:26;34.20;43.00
57660;DHT22;43485;45.680;15.702;2023-08-20T08:32:52;34.30;42.20
57660;DHT22;43485;45.680;15.702;2023-08-20T08:35:19;34.70;41.50
57660;DHT22;43485;45.680;15.702;2023-08-20T08:37:45;35.10;40.10
57660;DHT22;43485;45.680;15.702;2023-08-20T08:40:11;35.70;39.00
57660;DHT22;43485;45.680;15.702;2023-08-20T08:42:38;36.20;38.20
57660;DHT22;43485;45.680;15.702;2023-08-20T08:45:06;36.70;37.10
57660;DHT22;43485;45.680;15.702;2023-08-20T08:47:33;37.20;35.80
57660;DHT22;43485;45.680;15.702;2023-08-20T08:50:00;37.70;35.30
57660;DHT22;43485;45.680;15.702;2023-08-20T08:52:26;38.20;34.40
57660;DHT22;43485;45.680;15.702;2023-08-20T08:54:53;38.70;33.00
57660;DHT22;43485;45.680;15.702;2023-08-20T08:57:19;39.20;32.30
57660;DHT22;43485;45.680;15.702;2023-08-20T08:59:45;39.70;30.70
57660;DHT22;43485;45.680;15.702;2023-08-20T09:02:12;40.10;30.30
57660;DHT22;43485;45.680;15.702;2023-08-20T09:04:39;40.50;29.50
57660;DHT22;43485;45.680;15.702;2023-08-20T09:07:07;41.00;28.60
57660;DHT22;43485;45.680;15.702;2023-08-20T09:09:37;41.40;28.00
57660;DHT22;43485;45.680;15.702;2023-08-20T09:14:59;42.20;27.30
57660;DHT22;43485;45.680;15.702;2023-08-20T09:17:26;42.80;26.40
57660;DHT22;43485;45.680;15.702;2023-08-20T09:19:55;43.20;25.90
57660;DHT22;43485;45.680;15.702;2023-08-20T09:22:23;43.60;25.20
57660;DHT22;43485;45.680;15.702;2023-08-20T09:25:09;44.10;25.00
57660;DHT22;43485;45.680;15.702;2023-08-20T09:27:42;44.50;24.60
57660;DHT22;43485;45.680;15.702;2023-08-20T09:30:08;44.90;23.50
57660;DHT22;43485;45.680;15.702;2023-08-20T09:32:35;45.20;22.90
57660;DHT22;43485;45.680;15.702;2023-08-20T09:35:01;45.50;22.80
57660;DHT22;43485;45.680;15.702;2023-08-20T09:37:27;45.90;22.30
57660;DHT22;43485;45.680;15.702;2023-08-20T09:39:53;46.20;22.10
57660;DHT22;43485;45.680;15.702;2023-08-20T09:42:19;46.50;21.60
57660;DHT22;43485;45.680;15.702;2023-08-20T09:44:46;46.90;21.20
57660;DHT22;43485;45.680;15.702;2023-08-20T09:47:16;47.20;20.90
57660;DHT22;43485;45.680;15.702;2023-08-20T09:50:00;47.50;20.00
57660;DHT22;43485;45.680;15.702;2023-08-20T09:52:48;47.70;20.00
57660;DHT22;43485;45.680;15.702;2023-08-20T09:55:38;48.20;19.80
57660;DHT22;43485;45.680;15.702;2023-08-20T09:58:05;48.60;19.60
57660;DHT22;43485;45.680;15.702;2023-08-20T10:00:33;48.90;18.80
57660;DHT22;43485;45.680;15.702;2023-08-20T10:02:59;49.30;18.70
57660;DHT22;43485;45.680;15.702;2023-08-20T10:05:25;49.40;19.10
57660;DHT22;43485;45.680;15.702;2023-08-20T10:07:52;49.80;18.30
57660;DHT22;43485;45.680;15.702;2023-08-20T10:10:20;50.00;18.70
57660;DHT22;43485;45.680;15.702;2023-08-20T10:12:46;50.40;18.20
57660;DHT22;43485;45.680;15.702;2023-08-20T10:15:14;50.70;17.60
57660;DHT22;43485;45.680;15.702;2023-08-20T10:17:42;50.90;17.50
57660;DHT22;43485;45.680;15.702;2023-08-20T10:20:13;51.40;17.40
57660;DHT22;43485;45.680;15.702;2023-08-20T10:22:43;51.70;17.20
57660;DHT22;43485;45.680;15.702;2023-08-20T10:31:19;52.40;16.50
57660;DHT22;43485;45.680;15.702;2023-08-20T10:34:03;52.70;16.20
57660;DHT22;43485;45.680;15.702;2023-08-20T10:36:29;53.00;16.70
57660;DHT22;43485;45.680;15.702;2023-08-20T10:38:56;53.30;16.00
57660;DHT22;43485;45.680;15.702;2023-08-20T10:41:42;53.30;15.90
57660;DHT22;43485;45.680;15.702;2023-08-20T10:44:08;53.40;15.80
57660;DHT22;43485;45.680;15.702;2023-08-20T10:46:49;53.60;16.10
57660;DHT22;43485;45.680;15.702;2023-08-20T10:49:17;54.20;15.90
57660;DHT22;43485;45.680;15.702;2023-08-20T10:51:47;54.50;15.40
57660;DHT22;43485;45.680;15.702;2023-08-20T10:54:13;54.60;15.30
57660;DHT22;43485;45.680;15.702;2023-08-20T10:56:59;54.80;14.40
57660;DHT22;43485;45.680;15.702;2023-08-20T10:59:43;54.90;14.70
57660;DHT22;43485;45.680;15.702;2023-08-20T11:02:14;55.00;14.80
57660;DHT22;43485;45.680;15.702;2023-08-20T11:04:41;55.30;14.70
57660;DHT22;43485;45.680;15.702;2023-08-20T11:07:08;55.50;14.50
57660;DHT22;43485;45.680;15.702;2023-08-20T11:09:34;55.70;14.10
57660;DHT22;43485;45.680;15.702;2023-08-20T11:12:01;55.90;13.40
57660;DHT22;43485;45.680;15.702;2023-08-20T11:14:26;55.90;14.00
57660;DHT22;43485;45.680;15.702;2023-08-20T11:16:53;56.10;14.00
57660;DHT22;43485;45.680;15.702;2023-08-20T11:19:21;56.50;14.00
57660;DHT22;43485;45.680;15.702;2023-08-20T11:21:48;56.50;13.70
57660;DHT22;43485;45.680;15.702;2023-08-20T11:24:15;56.80;13.50
57660;DHT22;43485;45.680;15.702;2023-08-20T11:26:44;56.90;13.60
57660;DHT22;43485;45.680;15.702;2023-08-20T11:29:12;57.20;13.90
57660;DHT22;43485;45.680;15.702;2023-08-20T11:31:40;57.20;13.50
57660;DHT22;43485;45.680;15.702;2023-08-20T11:34:07;57.40;13.10
57660;DHT22;43485;45.680;15.702;2023-08-20T11:36:35;57.00;13.40
57660;DHT22;43485;45.680;15.702;2023-08-20T11:39:01;56.50;13.60
57660;DHT22;43485;45.680;15.702;2023-08-20T11:41:27;56.90;13.20
57660;DHT22;43485;45.680;15.702;2023-08-20T11:43:53;57.00;13.50
57660;DHT22;43485;45.680;15.702;2023-08-20T11:46:21;56.20;13.40
57660;DHT22;43485;45.680;15.702;2023-08-20T11:49:08;55.60;13.30
57660;DHT22;43485;45.680;15.702;2023-08-20T11:51:55;53.50;14.20
57660;DHT22;43485;45.680;15.702;2023-08-20T11:54:21;52.60;15.00
57660;DHT22;43485;45.680;15.702;2023-08-20T11:56:49;52.60;15.80
57660;DHT22;43485;45.680;15.702;2023-08-20T12:02:04;51.30;16.00
57660;DHT22;43485;45.680;15.702;2023-08-20T12:04:30;50.90;16.40
57660;DHT22;43485;45.680;15.702;2023-08-20T12:07:16;51.60;15.90
57660;DHT22;43485;45.680;15.702;2023-08-20T12:09:42;52.90;14.80
57660;DHT22;43485;45.680;15.702;2023-08-20T12:12:08;53.80;14.80
57660;DHT22;43485;45.680;15.702;2023-08-20T12:14:35;54.50;14.50
57660;DHT22;43485;45.680;15.702;2023-08-20T12:17:02;55.20;14.00
57660;DHT22;43485;45.680;15.702;2023-08-20T12:19:31;55.70;13.80
57660;DHT22;43485;45.680;15.702;2023-08-20T12:21:57;55.80;13.10
57660;DHT22;43485;45.680;15.702;2023-08-20T12:24:23;56.10;13.30
57660;DHT22;43485;45.680;15.702;2023-08-20T12:26:51;56.30;13.50
57660;DHT22;43485;45.680;15.702;2023-08-20T12:29:17;56.50;12.40
57660;DHT22;43485;45.680;15.702;2023-08-20T12:31:43;56.70;12.90
57660;DHT22;43485;45.680;15.702;2023-08-20T12:34:09;57.10;12.90
57660;DHT22;43485;45.680;15.702;2023-08-20T12:36:35;57.20;13.00
57660;DHT22;43485;45.680;15.702;2023-08-20T12:39:02;57.00;12.90
57660;DHT22;43485;45.680;15.702;2023-08-20T12:41:30;57.00;13.40
57660;DHT22;43485;45.680;15.702;2023-08-20T12:43:57;56.70;12.80
57660;DHT22;43485;45.680;15.702;2023-08-20T12:46:24;55.80;13.30
57660;DHT22;43485;45.680;15.702;2023-08-20T12:48:49;56.70;13.20
57660;DHT22;43485;45.680;15.702;2023-08-20T12:51:16;57.50;13.00
57660;DHT22;43485;45.680;15.702;2023-08-20T12:53:43;58.00;12.60
57660;DHT22;43485;45.680;15.702;2023-08-20T12:56:09;58.60;12.00
57660;DHT22;43485;45.680;15.702;2023-08-20T12:58:35;57.90;12.60
57660;DHT22;43485;45.680;15.702;2023-08-20T13:01:02;55.40;13.80
57660;DHT22;43485;45.680;15.702;2023-08-20T13:03:28;53.20;14.80
57660;DHT22;43485;45.680;15.702;2023-08-20T13:05:55;51.50;15.90
57660;DHT22;43485;45.680;15.702;2023-08-20T13:08:23;51.50;16.20
57660;DHT22;43485;45.680;15.702;2023-08-20T13:10:54;51.60;16.50
57660;DHT22;43485;45.680;15.702;2023-08-20T13:13:23;53.10;16.00
57660;DHT22;43485;45.680;15.702;2023-08-20T13:15:55;54.40;15.20
57660;DHT22;43485;45.680;15.702;2023-08-20T13:18:22;55.30;14.30
57660;DHT22;43485;45.680;15.702;2023-08-20T13:21:10;56.00;14.00
57660;DHT22;43485;45.680;15.702;2023-08-20T13:23:36;56.60;13.50
57660;DHT22;43485;45.680;15.702;2023-08-20T13:26:02;56.90;13.00
57660;DHT22;43485;45.680;15.702;2023-08-20T13:28:28;57.10;13.20
57660;DHT22;43485;45.680;15.702;2023-08-20T13:30:54;57.60;13.10
57660;DHT22;43485;45.680;15.702;2023-08-20T13:33:20;58.00;13.20
57660;DHT22;43485;45.680;15.702;2023-08-20T13:35:46;58.20;12.80
57660;DHT22;43485;45.680;15.702;2023-08-20T13:38:13;56.10;13.70
57660;DHT22;43485;45.680;15.702;2023-08-20T13:40:39;55.90;13.70
57660;DHT22;43485;45.680;15.702;2023-08-20T13:43:05;56.50;13.20
57660;DHT22;43485;45.680;15.702;2023-08-20T13:45:32;57.20;13.20
57660;DHT22;43485;45.680;15.702;2023-08-20T13:47:59;57.30;13.00
57660;DHT22;43485;45.680;15.702;2023-08-20T13:50:25;57.60;12.60
57660;DHT22;43485;45.680;15.702;2023-08-20T13:52:51;57.80;12.70
57660;DHT22;43485;45.680;15.702;2023-08-20T13:55:17;57.60;12.90
57660;DHT22;43485;45.680;15.702;2023-08-20T13:57:44;57.70;12.90
57660;DHT22;43485;45.680;15.702;2023-08-20T14:00:10;57.90;12.80
57660;DHT22;43485;45.680;15.702;2023-08-20T14:02:38;58.10;12.70
57660;DHT22;43485;45.680;15.702;2023-08-20T14:05:05;57.70;12.50
57660;DHT22;43485;45.680;15.702;2023-08-20T14:07:31;56.60;12.80
57660;DHT22;43485;45.680;15.702;2023-08-20T14:10:02;55.90;13.20
57660;DHT22;43485;45.680;15.702;2023-08-20T14:12:29;55.50;13.30
57660;DHT22;43485;45.680;15.702;2023-08-20T14:14:55;53.90;13.80
57660;DHT22;43485;45.680;15.702;2023-08-20T14:17:21;52.30;15.10
57660;DHT22;43485;45.680;15.702;2023-08-20T14:19:48;51.50;15.90
57660;DHT22;43485;45.680;15.702;2023-08-20T14:22:14;51.40;16.10
57660;DHT22;43485;45.680;15.702;2023-08-20T14:24:40;50.20;17.10
57660;DHT22;43485;45.680;15.702;2023-08-20T14:27:05;50.80;16.70
57660;DHT22;43485;45.680;15.702;2023-08-20T14:29:33;51.90;16.00
57660;DHT22;43485;45.680;15.702;2023-08-20T14:31:59;52.70;15.80
57660;DHT22;43485;45.680;15.702;2023-08-20T14:34:25;53.30;15.20
57660;DHT22;43485;45.680;15.702;2023-08-20T14:36:51;53.80;14.90
57660;DHT22;43485;45.680;15.702;2023-08-20T14:39:17;54.10;15.20
57660;DHT22;43485;45.680;15.702;2023-08-20T14:41:43;54.20;15.00
57660;DHT22;43485;45.680;15.702;2023-08-20T14:44:09;54.20;15.70
57660;DHT22;43485;45.680;15.702;2023-08-20T14:46:35;54.10;15.00
57660;DHT22;43485;45.680;15.702;2023-08-20T14:49:01;54.00;15.20
57660;DHT22;43485;45.680;15.702;2023-08-20T14:51:27;53.00;15.70
57660;DHT22;43485;45.680;15.702;2023-08-20T14:53:53;52.80;15.60
57660;DHT22;43485;45.680;15.702;2023-08-20T14:56:19;52.60;15.90
57660;DHT22;43485;45.680;15.702;2023-08-20T14:58:45;52.40;16.20
57660;DHT22;43485;45.680;15.702;2023-08-20T15:01:11;52.50;16.00
57660;DHT22;43485;45.680;15.702;2023-08-20T15:03:38;52.40;15.80
57660;DHT22;43485;45.680;15.702;2023-08-20T15:06:04;52.30;15.20
57660;DHT22;43485;45.680;15.702;2023-08-20T15:08:30;52.30;15.90
57660;DHT22;43485;45.680;15.702;2023-08-20T15:11:17;52.30;16.10
57660;DHT22;43485;45.680;15.702;2023-08-20T15:13:43;52.20;16.40
57660;DHT22;43485;45.680;15.702;2023-08-20T15:16:09;51.90;16.40
57660;DHT22;43485;45.680;15.702;2023-08-20T15:18:35;51.80;15.90
57660;DHT22;43485;45.680;15.702;2023-08-20T15:21:01;51.60;16.10
57660;DHT22;43485;45.680;15.702;2023-08-20T15:23:28;51.30;16.30
57660;DHT22;43485;45.680;15.702;2023-08-20T15:25:55;50.30;16.80
57660;DHT22;43485;45.680;15.702;2023-08-20T15:28:22;49.90;17.10
57660;DHT22;43485;45.680;15.702;2023-08-20T15:30:50;49.90;17.40
57660;DHT22;43485;45.680;15.702;2023-08-20T15:33:17;49.80;17.60
57660;DHT22;43485;45.680;15.702;2023-08-20T15:35:44;49.70;17.70
57660;DHT22;43485;45.680;15.702;2023-08-20T15:38:10;48.90;18.20
57660;DHT22;43485;45.680;15.702;2023-08-20T15:40:38;47.40;19.50
57660;DHT22;43485;45.680;15.702;2023-08-20T15:43:04;45.90;20.40
57660;DHT22;43485;45.680;15.702;2023-08-20T15:45:30;45.00;22.00